Time;durP1;ratioP1;P1;durP2;ratioP2;P2;SDS_P1;SDS_P2;PMS_P1;PMS_P2;Temp;Humidity;BMP_temperature;BMP_pressure;BME280_temperature;BME280_humidity;BME280_pressure;Samples;Min_cycle;Max_cycle;Signal;HPM_P1;HPM_P2
2023/05/05 00:01:07;;;;;;;6.43;2.10;;;12.30;99.90;;;;;;5092230;28;20039;-86
2023/05/05 00:03:35;;;;;;;;;;;12.20;99.90;;;;;;5093028;28;20026;-85
2023/05/05 00:06:01;;;;;;;5.78;2.72;;;12.10;99.90;;;;;;5093770;28;19904;-85
2023/05/05 00:08:27;;;;;;;;;;;12.00;99.90;;;;;;5092500;28;20119;-86
2023/05/05 00:10:53;;;;;;;4.25;2.03;;;11.90;99.90;;;;;;5091988;28;19908;-86
2023/05/05 00:13:19;;;;;;;;;;;11.80;99.90;;;;;;5090964;28;20481;-87
2023/05/05 00:15:46;;;;;;;6.47;2.35;;;11.70;99.90;;;;;;5092249;28;19904;-87
2023/05/05 00:18:14;;;;;;;5.40;2.47;;;11.60;99.90;;;;;;5092375;28;20024;-86
2023/05/05 00:20:40;;;;;;;6.22;2.88;;;11.60;99.90;;;;;;5091950;28;20052;-86
2023/05/05 00:23:05;;;;;;;;;;;11.50;99.90;;;;;;5092651;28;20065;-86
2023/05/05 00:25:31;;;;;;;4.90;2.28;;;11.50;99.90;;;;;;5092239;28;20380;-85
2023/05/05 00:27:57;;;;;;;;;;;11.30;99.90;;;;;;5091758;28;20077;-84
2023/05/05 00:30:23;;;;;;;5.47;2.80;;;11.20;99.90;;;;;;5093095;28;19910;-86
2023/05/05 00:32:49;;;;;;;5.18;2.80;;;11.10;99.90;;;;;;5092211;28;20042;-87
2023/05/05 00:35:16;;;;;;;6.45;2.35;;;11.10;99.90;;;;;;5091825;28;20024;-86
2023/05/05 00:37:42;;;;;;;6.72;2.45;;;11.10;99.90;;;;;;5092537;28;20024;-86
2023/05/05 00:40:08;;;;;;;;;;;11.10;99.90;;;;;;5090730;28;20089;-87
2023/05/05 00:42:41;;;;;;;5.88;2.58;;;11.00;99.90;;;;;;5091681;28;19913;-86
2023/05/05 00:45:08;;;;;;;3.83;2.20;;;10.90;99.90;;;;;;5091908;28;20032;-87
2023/05/05 00:47:34;;;;;;;4.65;2.00;;;10.80;99.90;;;;;;5092034;28;20489;-87
2023/05/05 00:50:01;;;;;;;8.40;2.17;;;10.80;99.90;;;;;;5092344;28;20024;-88
2023/05/05 00:52:26;;;;;;;6.20;2.72;;;10.70;99.90;;;;;;5091794;28;20028;-88
2023/05/05 00:54:52;;;;;;;;;;;10.60;99.90;;;;;;5091908;28;20095;-88
2023/05/05 00:57:19;;;;;;;6.07;2.92;;;10.60;99.90;;;;;;5091131;28;19989;-87
2023/05/05 00:59:46;;;;;;;6.50;3.20;;;10.50;99.90;;;;;;5089139;28;20450;-88
2023/05/05 01:02:12;;;;;;;6.22;3.40;;;10.40;99.90;;;;;;5094021;28;20071;-89
2023/05/05 01:04:37;;;;;;;;;;;10.30;99.90;;;;;;5096578;28;20109;-88
2023/05/05 01:07:34;;;;;;;5.15;2.42;;;10.30;99.90;;;;;;5096020;28;20009;-88
2023/05/05 01:10:12;;;;;;;8.23;2.17;;;10.30;99.90;;;;;;5095186;28;20024;-87
2023/05/05 01:13:15;;;;;;;4.78;2.08;;;10.20;99.90;;;;;;5095651;28;20035;-88
2023/05/05 01:16:15;;;;;;;5.97;2.70;;;10.20;99.90;;;;;;5095926;28;20081;-89
2023/05/05 01:19:28;;;;;;;4.75;2.15;;;10.20;99.90;;;;;;5095907;28;20038;-88
2023/05/05 01:21:59;;;;;;;5.28;2.40;;;10.20;99.90;;;;;;5095859;28;20150;-90
2023/05/05 01:24:40;;;;;;;4.20;2.30;;;10.10;99.90;;;;;;5095405;28;20028;-89
2023/05/05 01:27:39;;;;;;;4.28;2.22;;;10.10;99.90;;;;;;5100822;28;20034;-88
2023/05/05 01:30:33;;;;;;;3.90;2.17;;;10.10;99.90;;;;;;5055001;28;20039;-89
2023/05/05 01:33:04;;;;;;;4.45;2.17;;;10.10;99.90;;;;;;5095708;28;20031;-88
2023/05/05 01:35:36;;;;;;;4.72;1.92;;;10.00;99.90;;;;;;5095943;28;20463;-89
2023/05/05 01:38:10;;;;;;;4.93;2.58;;;9.90;99.90;;;;;;5095750;28;20476;-89
2023/05/05 01:41:00;;;;;;;5.65;2.30;;;9.90;99.90;;;;;;5095354;28;20069;-87
2023/05/05 01:43:31;;;;;;;5.20;2.53;;;9.90;99.90;;;;;;5094183;28;20154;-90
2023/05/05 01:45:59;;;;;;;6.95;2.78;;;9.90;99.90;;;;;;5094831;28;20047;-90
2023/05/05 01:48:25;;;;;;;3.90;2.60;;;9.80;99.90;;;;;;5095442;28;20518;-87
2023/05/05 01:50:51;;;;;;;;;;;9.80;99.90;;;;;;5095511;28;20024;-86
2023/05/05 01:53:19;;;;;;;7.72;3.47;;;9.80;99.90;;;;;;5095357;28;19904;-87
2023/05/05 01:55:47;;;;;;;5.65;3.72;;;9.80;99.90;;;;;;5095004;28;20036;-86
2023/05/05 01:58:13;;;;;;;7.45;3.50;;;9.70;99.90;;;;;;5095003;28;20031;-87
2023/05/05 02:00:40;;;;;;;6.60;2.85;;;9.70;99.90;;;;;;5095106;28;20511;-88
2023/05/05 02:03:08;;;;;;;6.32;2.97;;;9.70;99.90;;;;;;5095969;28;20035;-88
2023/05/05 02:05:36;;;;;;;4.63;2.70;;;9.70;99.90;;;;;;5094893;28;20466;-85
2023/05/05 02:08:04;;;;;;;7.95;4.13;;;9.60;99.90;;;;;;5095607;28;20052;-86
2023/05/05 02:10:30;;;;;;;6.95;4.53;;;9.60;99.90;;;;;;5094690;28;20055;-86
2023/05/05 02:12:59;;;;;;;7.18;4.07;;;9.60;99.90;;;;;;5094467;28;20024;-89
2023/05/05 02:15:27;;;;;;;7.10;3.00;;;9.60;99.90;;;;;;5094798;28;20508;-90
2023/05/05 02:17:54;;;;;;;3.58;2.05;;;9.60;99.90;;;;;;5094437;28;20032;-87
2023/05/05 02:20:22;;;;;;;4.85;2.10;;;9.60;99.90;;;;;;5094569;28;20044;-87
2023/05/05 02:22:48;;;;;;;3.70;2.50;;;9.50;99.90;;;;;;5094487;28;20040;-87
2023/05/05 02:25:16;;;;;;;;;;;9.50;99.90;;;;;;5095212;28;20023;-87
2023/05/05 02:27:44;;;;;;;5.45;2.67;;;9.50;99.90;;;;;;5094404;28;19915;-88
2023/05/05 02:30:14;;;;;;;11.07;2.60;;;9.50;99.90;;;;;;5094328;28;20484;-86
2023/05/05 02:32:47;;;;;;;6.65;2.70;;;9.40;99.90;;;;;;5093696;28;20074;-86
2023/05/05 02:35:34;;;;;;;4.88;2.50;;;9.40;99.90;;;;;;5095339;28;20024;-85
2023/05/05 02:38:01;;;;;;;;;;;9.40;99.90;;;;;;5095348;28;20020;-84
2023/05/05 02:40:30;;;;;;;5.57;2.67;;;9.40;99.90;;;;;;5093283;28;19911;-84
2023/05/05 02:42:58;;;;;;;3.40;2.65;;;9.40;99.90;;;;;;5093080;28;20065;-85
2023/05/05 02:45:26;;;;;;;8.02;4.03;;;9.30;99.90;;;;;;5093363;28;20035;-84
2023/05/05 02:47:52;;;;;;;5.55;3.67;;;9.40;99.90;;;;;;5093050;28;20062;-84
2023/05/05 02:50:17;;;;;;;;;;;9.40;99.90;;;;;;5093290;28;20055;-84
2023/05/05 02:52:44;;;;;;;6.55;3.33;;;9.30;99.90;;;;;;5093101;28;19911;-84
2023/05/05 02:55:10;;;;;;;9.50;3.05;;;9.30;99.90;;;;;;5092838;28;20031;-84
2023/05/05 02:57:35;;;;;;;8.68;2.95;;;9.30;99.90;;;;;;5094230;28;20488;-85
2023/05/05 03:00:07;;;;;;;;;;;9.20;99.90;;;;;;5095203;28;20027;-84
2023/05/05 03:02:42;;;;;;;5.57;2.17;;;9.20;99.90;;;;;;5093776;28;20020;-84
2023/05/05 03:05:18;;;;;;;4.93;2.67;;;9.20;99.90;;;;;;5093084;28;20431;-84
2023/05/05 03:08:00;;;;;;;6.35;2.40;;;9.30;99.90;;;;;;5092932;28;20036;-85
2023/05/05 03:10:29;;;;;;;4.07;1.65;;;9.20;99.90;;;;;;5092336;28;20031;-84
2023/05/05 03:13:00;;;;;;;3.92;2.42;;;9.30;99.90;;;;;;5091213;28;20039;-86
2023/05/05 03:15:43;;;;;;;4.32;2.33;;;9.20;99.90;;;;;;5093448;28;20016;-85
2023/05/05 03:18:11;;;;;;;7.57;2.13;;;9.20;99.90;;;;;;5093362;28;20027;-87
2023/05/05 03:20:39;;;;;;;6.10;3.03;;;9.20;99.90;;;;;;5092579;28;20048;-87
2023/05/05 03:23:05;;;;;;;8.57;3.70;;;9.20;99.90;;;;;;5092479;28;20036;-88
2023/05/05 03:25:41;;;;;;;;;;;9.20;99.90;;;;;;5091095;28;20077;-86
2023/05/05 03:28:06;;;;;;;12.23;5.82;;;9.20;99.90;;;;;;5093371;28;19908;-85
2023/05/05 03:30:32;;;;;;;;;;;9.20;99.90;;;;;;5093443;28;20491;-85
2023/05/05 03:32:58;;;;;;;7.35;4.00;;;9.20;99.90;;;;;;5092334;28;20006;-86
2023/05/05 03:35:23;;;;;;;;;;;9.20;99.90;;;;;;5092888;28;20028;-85
2023/05/05 03:37:49;;;;;;;4.93;2.92;;;9.20;99.90;;;;;;5092452;28;19908;-87
2023/05/05 03:40:14;;;;;;;;;;;9.20;99.90;;;;;;5094596;28;20028;-86
2023/05/05 03:42:40;;;;;;;4.82;2.20;;;9.30;99.90;;;;;;5092672;28;19912;-86
2023/05/05 03:45:06;;;;;;;;;;;9.30;99.90;;;;;;5093985;28;20032;-85
2023/05/05 03:47:32;;;;;;;5.20;2.70;;;9.40;99.90;;;;;;5092441;28;19904;-86
2023/05/05 03:49:57;;;;;;;;;;;9.40;99.90;;;;;;5093102;28;20020;-89
2023/05/05 03:52:23;;;;;;;4.75;2.53;;;9.40;99.90;;;;;;5092884;28;19910;-87
2023/05/05 03:54:48;;;;;;;;;;;9.50;99.90;;;;;;5093281;28;20028;-88
2023/05/05 03:57:14;;;;;;;6.78;2.10;;;9.60;99.90;;;;;;5092922;28;19904;-88
2023/05/05 03:59:40;;;;;;;;;;;9.60;99.90;;;;;;5093347;28;20631;-89
2023/05/05 04:02:06;;;;;;;5.00;2.70;;;9.70;99.90;;;;;;5092968;28;20407;-89
2023/05/05 04:04:31;;;;;;;;;;;9.80;99.90;;;;;;5093946;28;20016;-89
2023/05/05 04:06:57;;;;;;;8.25;3.10;;;9.90;99.90;;;;;;5092388;28;20002;-88
2023/05/05 04:09:22;;;;;;;;;;;10.10;99.90;;;;;;5092846;28;20025;-88
2023/05/05 04:11:48;;;;;;;7.97;2.60;;;10.30;99.90;;;;;;5093750;28;19904;-89
2023/05/05 04:14:14;;;;;;;;;;;10.60;99.90;;;;;;5092721;28;20016;-88
2023/05/05 04:16:39;;;;;;;4.70;2.80;;;10.80;99.90;;;;;;5092625;28;19927;-88
2023/05/05 04:19:05;;;;;;;;;;;10.90;99.90;;;;;;5092802;28;20069;-89
2023/05/05 04:21:30;;;;;;;5.50;3.78;;;11.00;99.90;;;;;;5092128;28;19930;-88
2023/05/05 04:23:57;;;;;;;;;;;11.10;99.90;;;;;;5092932;28;20023;-88
2023/05/05 04:26:22;;;;;;;4.40;2.70;;;11.20;99.90;;;;;;5092221;28;20340;-89
2023/05/05 04:28:48;;;;;;;;;;;11.40;99.90;;;;;;5092597;28;20081;-87
2023/05/05 04:31:14;;;;;;;9.70;2.70;;;11.60;99.90;;;;;;5091786;28;20037;-86
2023/05/05 04:33:39;;;;;;;;;;;11.70;99.90;;;;;;5090661;28;20073;-85
2023/05/05 04:36:05;;;;;;;6.15;2.40;;;11.90;99.90;;;;;;5091170;28;19911;-85
2023/05/05 04:38:31;;;;;;;;;;;12.00;99.90;;;;;;5091991;28;20028;-87
2023/05/05 04:40:56;;;;;;;4.10;2.10;;;12.30;99.90;;;;;;5091357;28;20010;-88
2023/05/05 04:43:22;;;;;;;;;;;12.60;99.90;;;;;;5092538;28;20023;-88
2023/05/05 04:45:54;;;;;;;6.85;3.65;;;12.90;99.90;;;;;;5092156;28;19948;-90
2023/05/05 04:48:20;;;;;;;5.47;3.03;;;13.20;99.90;;;;;;5092383;28;20032;-89
2023/05/05 04:50:46;;;;;;;;;;;13.60;99.90;;;;;;5092582;28;20592;-89
2023/05/05 04:53:11;;;;;;;5.95;2.97;;;13.90;99.90;;;;;;5091666;28;19930;-86
2023/05/05 04:55:38;;;;;;;3.85;2.08;;;14.30;99.90;;;;;;5091629;28;20158;-90
2023/05/05 04:58:04;;;;;;;7.63;2.78;;;14.60;99.90;;;;;;5089316;28;20109;-87
2023/05/05 05:00:30;;;;;;;2.72;1.30;;;14.90;99.90;;;;;;5089739;28;20037;-87
2023/05/05 05:02:55;;;;;;;;;;;15.10;99.90;;;;;;5091190;28;20058;-87
2023/05/05 05:05:21;;;;;;;3.72;1.73;;;15.30;99.90;;;;;;5091771;28;20310;-87
2023/05/05 05:07:47;;;;;;;3.95;1.48;;;15.50;99.90;;;;;;5091832;28;20024;-85
2023/05/05 05:10:13;;;;;;;4.13;1.15;;;15.60;99.90;;;;;;5091826;28;20031;-88
2023/05/05 05:12:39;;;;;;;4.60;1.55;;;15.70;99.90;;;;;;5091748;28;20058;-87
2023/05/05 05:15:05;;;;;;;6.45;1.42;;;15.80;99.90;;;;;;5091641;28;20484;-89
2023/05/05 05:17:31;;;;;;;10.77;1.90;;;16.10;99.90;;;;;;5092765;28;20024;-88
2023/05/05 05:20:00;;;;;;;8.90;1.77;;;16.40;99.00;;;;;;5090313;28;20512;-86
2023/05/05 05:22:26;;;;;;;2.72;1.25;;;16.60;96.70;;;;;;5090786;28;20127;-88
2023/05/05 05:24:51;;;;;;;8.57;1.73;;;16.70;97.90;;;;;;5090845;28;20111;-87
2023/05/05 05:27:17;;;;;;;8.43;1.55;;;16.80;97.10;;;;;;5091586;28;20480;-87
2023/05/05 05:29:42;;;;;;;4.10;1.27;;;16.90;94.80;;;;;;5090040;28;20020;-87
2023/05/05 05:32:08;;;;;;;3.97;1.02;;;17.10;92.20;;;;;;5091261;28;20070;-88
2023/05/05 05:34:34;;;;;;;4.72;1.98;;;17.30;89.80;;;;;;5090963;28;20208;-88
2023/05/05 05:37:00;;;;;;;2.90;1.42;;;17.60;84.70;;;;;;5091517;28;20369;-88
2023/05/05 05:39:26;;;;;;;3.58;1.25;;;17.80;82.80;;;;;;5091519;28;20021;-88
2023/05/05 05:41:51;;;;;;;3.85;1.40;;;18.10;80.00;;;;;;5090219;28;20488;-88
2023/05/05 05:44:17;;;;;;;3.42;1.20;;;18.80;79.10;;;;;;5089891;28;20043;-87
2023/05/05 05:46:43;;;;;;;5.38;1.00;;;19.50;73.70;;;;;;5089493;28;20021;-87
2023/05/05 05:49:08;;;;;;;3.45;1.45;;;19.80;69.40;;;;;;5092585;28;20028;-86
2023/05/05 05:51:34;;;;;;;2.75;1.08;;;19.90;69.00;;;;;;5094225;28;20412;-86
2023/05/05 05:54:00;;;;;;;4.47;1.63;;;20.00;68.00;;;;;;5094996;28;20020;-88
2023/05/05 05:56:25;;;;;;;2.80;1.40;;;20.00;65.50;;;;;;5094502;28;20024;-87
2023/05/05 05:58:51;;;;;;;2.55;1.40;;;20.20;64.30;;;;;;5094814;28;20456;-87
2023/05/05 06:01:17;;;;;;;3.75;1.40;;;20.70;63.50;;;;;;5094642;28;20032;-87
2023/05/05 06:03:43;;;;;;;3.50;1.30;;;21.40;62.30;;;;;;5093705;28;20069;-86
2023/05/05 06:06:08;;;;;;;4.50;1.30;;;22.20;59.50;;;;;;5092952;28;20031;-88
2023/05/05 06:08:34;;;;;;;3.30;1.35;;;22.70;57.10;;;;;;5092793;28;20036;-87
2023/05/05 06:11:00;;;;;;;4.65;1.58;;;23.20;54.30;;;;;;5093240;28;20028;-88
2023/05/05 06:13:25;;;;;;;3.55;1.40;;;23.60;52.20;;;;;;5092947;28;20024;-88
2023/05/05 06:15:51;;;;;;;2.65;1.40;;;23.90;49.60;;;;;;5093571;28;20024;-89
2023/05/05 06:18:17;;;;;;;5.90;1.52;;;24.20;48.80;;;;;;5093305;28;20031;-87
2023/05/05 06:20:42;;;;;;;8.20;1.55;;;24.30;48.00;;;;;;5093219;28;20135;-86
2023/05/05 06:23:08;;;;;;;7.90;1.17;;;24.60;46.50;;;;;;5092916;28;20072;-87
2023/05/05 06:25:34;;;;;;;8.32;1.40;;;25.00;45.20;;;;;;5093034;28;20024;-86
2023/05/05 06:27:59;;;;;;;6.68;1.45;;;25.40;44.30;;;;;;5093428;28;20490;-85
2023/05/05 06:30:25;;;;;;;3.35;1.42;;;25.60;41.70;;;;;;5093212;28;20407;-86
2023/05/05 06:32:53;;;;;;;10.15;1.40;;;25.90;38.50;;;;;;5094134;28;20420;-87
2023/05/05 06:35:18;;;;;;;6.70;1.60;;;26.10;35.40;;;;;;5092627;28;20016;-87
2023/05/05 06:37:44;;;;;;;10.52;1.42;;;26.50;32.80;;;;;;5093693;28;20028;-87
2023/05/05 06:40:10;;;;;;;2.35;1.25;;;26.50;32.80;;;;;;5094124;28;20020;-87
2023/05/05 06:42:36;;;;;;;5.45;1.60;;;26.60;33.20;;;;;;5092997;28;20040;-87
2023/05/05 06:45:02;;;;;;;6.43;1.10;;;26.80;34.00;;;;;;5092886;28;20035;-87
2023/05/05 06:47:27;;;;;;;4.13;1.63;;;27.00;32.90;;;;;;5095541;28;20385;-87
2023/05/05 06:49:53;;;;;;;2.42;1.20;;;27.00;32.50;;;;;;5093795;28;20028;-88
2023/05/05 06:52:18;;;;;;;5.05;1.48;;;27.30;32.80;;;;;;5092278;28;20106;-87
2023/05/05 06:54:44;;;;;;;3.22;1.45;;;27.70;32.10;;;;;;5093394;28;20028;-88
2023/05/05 06:57:10;;;;;;;3.47;1.33;;;27.70;31.90;;;;;;5093645;28;20028;-88
2023/05/05 06:59:36;;;;;;;4.25;1.50;;;27.50;30.20;;;;;;5092856;28;20024;-87
2023/05/05 07:02:01;;;;;;;2.28;1.13;;;27.20;30.70;;;;;;5091503;28;20040;-88
2023/05/05 07:04:27;;;;;;;3.33;1.48;;;27.40;31.40;;;;;;5093272;28;20016;-87
2023/05/05 07:06:54;;;;;;;3.35;1.63;;;26.70;30.20;;;;;;5093403;28;20377;-87
2023/05/05 07:09:20;;;;;;;7.28;2.78;;;26.50;32.00;;;;;;5093781;28;20069;-87
2023/05/05 07:11:45;;;;;;;4.68;1.50;;;26.90;32.00;;;;;;5091691;28;20032;-88
2023/05/05 07:14:11;;;;;;;7.50;1.60;;;27.40;31.30;;;;;;5094430;28;20412;-87
2023/05/05 07:16:37;;;;;;;5.50;1.85;;;27.80;31.00;;;;;;5091724;28;20024;-88
2023/05/05 07:19:06;;;;;;;9.48;2.15;;;27.60;30.50;;;;;;5091378;28;20032;-88
2023/05/05 07:21:32;;;;;;;3.72;1.80;;;27.70;29.90;;;;;;5091360;28;20501;-88
2023/05/05 07:23:58;;;;;;;4.93;1.88;;;27.50;30.60;;;;;;5091560;28;20058;-89
2023/05/05 07:26:24;;;;;;;9.02;2.03;;;27.50;30.30;;;;;;5092749;28;20055;-88
2023/05/05 07:28:50;;;;;;;4.88;1.98;;;27.80;30.30;;;;;;5092084;28;20059;-90
2023/05/05 07:31:18;;;;;;;5.05;1.88;;;27.90;30.40;;;;;;5091885;28;20040;-89
2023/05/05 07:33:44;;;;;;;7.10;1.90;;;28.00;29.80;;;;;;5092010;28;20032;-89
2023/05/05 07:36:10;;;;;;;3.78;1.60;;;28.30;30.00;;;;;;5092157;28;20035;-88
2023/05/05 07:38:36;;;;;;;6.00;1.90;;;28.60;29.70;;;;;;5091810;28;20024;-88
2023/05/05 07:41:02;;;;;;;6.53;1.65;;;28.60;28.60;;;;;;5091868;28;20036;-89
2023/05/05 07:43:27;;;;;;;4.80;1.67;;;28.50;29.50;;;;;;5091040;28;20027;-88
2023/05/05 07:45:53;;;;;;;3.85;1.70;;;28.30;29.00;;;;;;5090910;28;20038;-89
2023/05/05 07:48:19;;;;;;;3.45;1.80;;;28.50;29.20;;;;;;5090877;28;20030;-89
2023/05/05 07:50:45;;;;;;;3.05;1.50;;;28.70;28.20;;;;;;5092002;28;20024;-89
2023/05/05 07:53:11;;;;;;;10.70;2.13;;;28.90;27.00;;;;;;5091112;28;20111;-89
2023/05/05 07:55:36;;;;;;;3.13;1.30;;;28.70;27.70;;;;;;5091593;28;20480;-89
2023/05/05 07:58:02;;;;;;;3.63;1.58;;;28.80;27.50;;;;;;5091514;28;20115;-90
2023/05/05 08:00:28;;;;;;;4.18;1.58;;;29.20;27.10;;;;;;5090663;28;20150;-88
2023/05/05 08:02:54;;;;;;;3.42;1.85;;;29.20;26.90;;;;;;5091029;28;20520;-89
2023/05/05 08:05:20;;;;;;;4.18;1.35;;;29.00;27.30;;;;;;5092214;28;20408;-89
2023/05/05 08:07:45;;;;;;;4.65;1.88;;;29.20;26.00;;;;;;5091463;28;20028;-87
2023/05/05 08:10:12;;;;;;;79.55;17.25;;;28.90;27.30;;;;;;5090529;28;20024;-89
2023/05/05 08:12:38;;;;;;;4.43;1.50;;;29.10;26.90;;;;;;5089748;28;20063;-89
2023/05/05 08:15:05;;;;;;;6.78;2.17;;;28.80;26.70;;;;;;5090731;28;20024;-88
2023/05/05 08:17:46;;;;;;;4.45;1.38;;;28.90;26.90;;;;;;5091077;28;20028;-88
2023/05/05 08:20:12;;;;;;;7.95;2.28;;;29.20;27.80;;;;;;5090304;28;20551;-88
2023/05/05 08:22:39;;;;;;;3.75;1.85;;;29.30;27.00;;;;;;5091167;28;20032;-89
2023/05/05 08:25:05;;;;;;;5.13;1.65;;;29.30;26.40;;;;;;5090379;28;20528;-90
2023/05/05 08:27:34;;;;;;;4.40;2.05;;;29.30;27.80;;;;;;5090297;28;20492;-88
2023/05/05 08:30:00;;;;;;;3.08;1.90;;;29.30;27.70;;;;;;5090344;28;20028;-87
2023/05/05 08:32:26;;;;;;;7.57;2.45;;;29.60;27.50;;;;;;5090616;28;20092;-87
2023/05/05 08:34:52;;;;;;;4.82;1.80;;;29.60;26.90;;;;;;5090213;28;20115;-87
2023/05/05 08:37:17;;;;;;;4.25;1.92;;;29.80;27.00;;;;;;5090402;28;20024;-87
2023/05/05 08:39:43;;;;;;;5.25;1.88;;;29.70;27.10;;;;;;5090312;28;20024;-89
2023/05/05 08:42:09;;;;;;;6.40;1.85;;;29.80;27.00;;;;;;5091083;28;20569;-87
2023/05/05 08:44:35;;;;;;;10.23;2.10;;;29.80;27.30;;;;;;5090236;28;20051;-88
2023/05/05 08:47:01;;;;;;;3.78;1.95;;;29.90;27.40;;;;;;5090974;28;20370;-89
2023/05/05 08:49:35;;;;;;;8.30;1.60;;;29.80;25.60;;;;;;5090402;28;20055;-89
2023/05/05 08:52:03;;;;;;;6.18;2.20;;;29.60;27.30;;;;;;5090443;28;20365;-87
2023/05/05 08:54:36;;;;;;;7.10;1.98;;;29.50;27.00;;;;;;5090166;28;20028;-89
2023/05/05 08:57:06;;;;;;;7.35;1.73;;;29.60;26.40;;;;;;5089836;28;20070;-87
2023/05/05 08:59:33;;;;;;;5.65;1.75;;;29.80;27.10;;;;;;5090229;28;20024;-87
2023/05/05 09:02:00;;;;;;;3.33;1.98;;;29.80;27.40;;;;;;5090420;28;20059;-87
2023/05/05 09:04:26;;;;;;;3.70;2.05;;;29.80;26.30;;;;;;5090234;28;20028;-87
2023/05/05 09:06:52;;;;;;;5.05;2.38;;;29.70;26.70;;;;;;5091161;28;20066;-89
2023/05/05 09:09:19;;;;;;;4.35;2.10;;;29.70;26.40;;;;;;5090408;28;20392;-89
2023/05/05 09:11:45;;;;;;;2.90;1.85;;;29.70;26.60;;;;;;5097768;28;20020;-88
2023/05/05 09:14:14;;;;;;;3.15;1.63;;;29.30;26.70;;;;;;5090463;28;20028;-89
2023/05/05 09:16:42;;;;;;;5.30;1.98;;;29.60;26.80;;;;;;5090792;28;20540;-87
2023/05/05 09:19:08;;;;;;;6.40;2.05;;;29.50;26.90;;;;;;5090899;28;20024;-87
2023/05/05 09:21:33;;;;;;;5.90;2.13;;;29.40;27.10;;;;;;5090537;28;20044;-88
2023/05/05 09:24:07;;;;;;;15.20;2.35;;;29.70;27.50;;;;;;5095103;28;20401;-89
2023/05/05 09:26:41;;;;;;;10.02;2.85;;;30.20;26.90;;;;;;5095021;28;20449;-88
2023/05/05 09:29:06;;;;;;;4.63;2.17;;;30.40;27.20;;;;;;5095025;28;20032;-89
2023/05/05 09:31:33;;;;;;;8.48;2.67;;;30.60;26.30;;;;;;5093780;28;20076;-89
2023/05/05 09:34:00;;;;;;;4.75;1.65;;;30.80;26.70;;;;;;5093809;28;20054;-88
2023/05/05 09:36:48;;;;;;;4.95;1.90;;;30.90;26.70;;;;;;5094780;28;20024;-88
2023/05/05 09:39:17;;;;;;;4.60;1.90;;;30.80;25.00;;;;;;5097421;28;20017;-89
2023/05/05 09:41:43;;;;;;;6.18;1.85;;;30.80;25.90;;;;;;5094543;28;20034;-89
2023/05/05 09:44:11;;;;;;;3.90;1.70;;;30.60;25.00;;;;;;5093360;28;20051;-87
2023/05/05 09:46:49;;;;;;;3.35;1.55;;;30.50;26.10;;;;;;5093178;28;20070;-87
2023/05/05 09:49:17;;;;;;;4.78;2.03;;;30.80;25.80;;;;;;5096096;28;20032;-87
2023/05/05 09:51:46;;;;;;;3.55;2.00;;;30.50;25.60;;;;;;5094967;28;20426;-88
2023/05/05 09:54:27;;;;;;;4.15;2.13;;;30.80;26.40;;;;;;5093484;28;20020;-87
2023/05/05 09:56:54;;;;;;;3.60;1.73;;;30.80;27.40;;;;;;5094812;28;20028;-89
2023/05/05 09:59:20;;;;;;;4.05;2.00;;;31.00;26.60;;;;;;5094986;28;20031;-88
2023/05/05 10:01:47;;;;;;;8.75;2.17;;;31.10;25.90;;;;;;5093729;28;20032;-87
2023/05/05 10:04:27;;;;;;;3.67;2.10;;;30.90;26.40;;;;;;5093490;28;20039;-86
2023/05/05 10:06:54;;;;;;;3.42;1.67;;;30.90;26.10;;;;;;5093686;28;20024;-86
2023/05/05 10:09:21;;;;;;;4.65;1.70;;;29.80;26.90;;;;;;5093378;28;20431;-86
2023/05/05 10:11:47;;;;;;;6.65;1.85;;;29.10;28.30;;;;;;5093503;28;20024;-86
2023/05/05 10:14:14;;;;;;;3.50;2.00;;;28.70;28.40;;;;;;5092562;28;20384;-85
2023/05/05 10:16:51;;;;;;;6.63;2.58;;;28.00;27.90;;;;;;5093435;28;20020;-87
2023/05/05 10:19:19;;;;;;;4.15;1.70;;;27.10;28.30;;;;;;5094069;28;20032;-86
2023/05/05 10:21:48;;;;;;;3.35;1.95;;;26.50;28.90;;;;;;5092578;28;20051;-87
2023/05/05 10:24:33;;;;;;;16.70;2.72;;;25.90;30.40;;;;;;5092787;28;20027;-86
2023/05/05 10:27:04;;;;;;;5.68;1.98;;;25.70;31.30;;;;;;5092370;28;20027;-87
2023/05/05 10:29:44;;;;;;;7.97;1.88;;;25.40;31.90;;;;;;5093474;28;20012;-87
2023/05/05 10:32:38;;;;;;;12.82;2.50;;;25.30;32.80;;;;;;5092523;28;20592;-87
2023/05/05 10:35:07;;;;;;;6.13;2.47;;;25.00;32.00;;;;;;5090439;28;20315;-87
2023/05/05 10:37:36;;;;;;;3.22;1.70;;;24.40;33.00;;;;;;5090733;28;20028;-85
2023/05/05 10:40:02;;;;;;;5.45;2.30;;;24.20;35.70;;;;;;5091656;28;20034;-86
2023/05/05 10:42:28;;;;;;;5.63;2.55;;;24.10;36.20;;;;;;5091843;28;20122;-87
2023/05/05 10:44:54;;;;;;;4.32;1.63;;;23.90;34.60;;;;;;5091675;28;20063;-86
2023/05/05 10:47:22;;;;;;;9.43;3.00;;;23.80;35.80;;;;;;5093005;28;20456;-87
2023/05/05 10:49:48;;;;;;;7.10;2.03;;;23.80;36.80;;;;;;5091987;28;20028;-87
2023/05/05 10:52:27;;;;;;;4.22;2.00;;;23.60;37.00;;;;;;5092133;28;20020;-87
2023/05/05 10:55:07;;;;;;;4.18;2.35;;;23.70;37.20;;;;;;5092582;28;20027;-87
2023/05/05 10:57:40;;;;;;;6.60;1.95;;;23.40;37.50;;;;;;5091986;28;20451;-87
2023/05/05 11:00:07;;;;;;;9.75;2.78;;;23.10;36.50;;;;;;5092755;28;20488;-86
2023/05/05 11:02:34;;;;;;;6.13;1.90;;;22.90;38.70;;;;;;5093815;28;20047;-87
2023/05/05 11:05:19;;;;;;;5.93;2.92;;;22.80;38.50;;;;;;5092473;28;20112;-85
2023/05/05 11:07:48;;;;;;;5.80;1.85;;;22.90;39.70;;;;;;5093342;28;20020;-86
2023/05/05 11:10:16;;;;;;;3.92;2.33;;;23.10;39.80;;;;;;5093987;28;20058;-87
2023/05/05 11:12:51;;;;;;;5.50;1.90;;;23.10;38.70;;;;;;5092297;28;20032;-87
2023/05/05 11:15:28;;;;;;;6.43;2.88;;;23.10;39.40;;;;;;5091596;28;20039;-87
2023/05/05 11:18:01;;;;;;;6.57;2.33;;;23.30;39.50;;;;;;5092164;28;20058;-87
2023/05/05 11:20:38;;;;;;;6.30;2.45;;;23.50;39.10;;;;;;5091999;28;20055;-87
2023/05/05 11:23:07;;;;;;;3.38;2.08;;;23.60;38.90;;;;;;5092151;28;20032;-87
2023/05/05 11:25:43;;;;;;;5.03;2.30;;;23.60;38.30;;;;;;5092379;28;20051;-87
2023/05/05 11:28:19;;;;;;;;;;;23.40;39.00;;;;;;5091514;28;20435;-87
2023/05/05 11:30:57;;;;;;;6.85;1.92;;;23.30;41.10;;;;;;5090990;28;19934;-87
2023/05/05 11:33:35;;;;;;;3.78;1.73;;;23.20;40.10;;;;;;5091556;28;20036;-87
2023/05/05 11:36:02;;;;;;;4.18;1.75;;;23.20;39.70;;;;;;5092142;28;20031;-87
2023/05/05 11:38:36;;;;;;;5.82;1.90;;;23.20;39.30;;;;;;5090888;28;20016;-87
2023/05/05 11:41:38;;;;;;;5.95;1.92;;;23.10;40.60;;;;;;5091012;28;20032;-86
2023/05/05 11:44:17;;;;;;;11.20;2.20;;;23.10;41.40;;;;;;5067889;28;20548;-87
2023/05/05 11:46:52;;;;;;;4.00;2.00;;;23.20;41.90;;;;;;5090964;28;20017;-88
2023/05/05 11:49:32;;;;;;;3.33;1.60;;;23.30;40.50;;;;;;5090686;28;20082;-87
2023/05/05 11:52:09;;;;;;;6.15;2.20;;;23.40;40.80;;;;;;5091018;28;20028;-88
2023/05/05 11:54:36;;;;;;;4.95;1.70;;;23.40;41.50;;;;;;5090776;28;20030;-85
2023/05/05 11:57:07;;;;;;;3.33;1.95;;;23.50;41.80;;;;;;5091017;28;20027;-87
2023/05/05 11:59:48;;;;;;;4.63;1.67;;;23.80;41.40;;;;;;5090811;28;20039;-88
2023/05/05 12:02:17;;;;;;;4.07;1.98;;;23.90;39.90;;;;;;5092383;28;20032;-87
2023/05/05 12:04:44;;;;;;;7.93;2.10;;;23.80;40.10;;;;;;5091134;28;20024;-86
2023/05/05 12:07:18;;;;;;;9.55;3.75;;;23.80;40.20;;;;;;5091043;28;20500;-87
2023/05/05 12:09:46;;;;;;;3.58;1.77;;;23.70;41.30;;;;;;5090974;28;20390;-86
2023/05/05 12:12:15;;;;;;;4.90;1.70;;;23.90;40.30;;;;;;5090322;28;20028;-87
2023/05/05 12:14:51;;;;;;;3.50;1.42;;;24.00;40.70;;;;;;5090564;28;20115;-87
2023/05/05 12:17:22;;;;;;;8.52;2.05;;;24.30;40.20;;;;;;5092575;28;20119;-86
2023/05/05 12:19:52;;;;;;;5.97;1.77;;;24.40;39.70;;;;;;5092361;28;20055;-87
2023/05/05 12:22:26;;;;;;;2.30;1.60;;;24.40;39.00;;;;;;5093364;28;20039;-87
2023/05/05 12:24:55;;;;;;;2.63;1.30;;;24.50;41.00;;;;;;5090094;28;20809;-87
2023/05/05 12:27:25;;;;;;;5.90;1.40;;;24.80;39.90;;;;;;5091743;28;20085;-88
2023/05/05 12:29:55;;;;;;;5.25;1.67;;;25.10;38.80;;;;;;5091638;28;20081;-88
2023/05/05 12:32:23;;;;;;;3.72;1.88;;;25.00;37.30;;;;;;5089905;28;20496;-88
2023/05/05 12:34:55;;;;;;;5.53;1.80;;;24.80;36.50;;;;;;5090648;28;20016;-87
2023/05/05 12:37:22;;;;;;;7.57;1.77;;;24.60;37.50;;;;;;5089817;28;20038;-88
2023/05/05 12:39:49;;;;;;;3.90;1.58;;;24.20;39.40;;;;;;5090029;28;20028;-87
2023/05/05 12:42:15;;;;;;;2.72;1.60;;;24.20;40.90;;;;;;5089207;28;20462;-88
2023/05/05 12:44:45;;;;;;;2.90;1.50;;;24.40;41.30;;;;;;5090177;28;20130;-87
2023/05/05 12:47:12;;;;;;;6.22;1.80;;;24.70;40.40;;;;;;5090032;28;20032;-88
2023/05/05 12:49:48;;;;;;;5.40;1.88;;;24.80;39.40;;;;;;5090998;28;20020;-88
2023/05/05 12:52:15;;;;;;;6.68;1.60;;;24.90;39.70;;;;;;5089909;28;20062;-89
2023/05/05 12:54:58;;;;;;;4.80;1.83;;;24.90;38.00;;;;;;5090107;28;20016;-90
2023/05/05 12:57:24;;;;;;;4.53;2.15;;;24.90;37.50;;;;;;5088911;28;20496;-88
2023/05/05 12:59:51;;;;;;;5.15;1.42;;;24.70;38.20;;;;;;5089576;28;20020;-88
2023/05/05 13:02:17;;;;;;;10.75;1.60;;;24.60;38.50;;;;;;5090291;28;20039;-86
2023/05/05 13:04:53;;;;;;;5.10;1.50;;;24.70;39.20;;;;;;5090023;28;20035;-87
2023/05/05 13:07:20;;;;;;;;;;;24.70;38.60;;;;;;5091233;28;20039;-87